This is the latest recevied weather packets stored in our database for station/object K6POO-1. If no packets are shown the sender has not sent any weather packets the latest 10 day(s).
| Time | Temp. | Humidity | Pressure | Rain* | Wind** | Luminosity | Snow |
|---|---|---|---|---|---|---|---|
| 1788133952 | 18.89° C | 65% | 1012.2 hPa | 0 mm | - | 340 W/m² | - |
| 1788133647 | 18.89° C | 66% | 1012.3 hPa | 0 mm | - | 360 W/m² | - |
| 1788133344 | 19.44° C | 64% | 1012.2 hPa | 0 mm | - | 377 W/m² | - |
| 1788133039 | 20° C | 63% | 1012.1 hPa | 0 mm | - | 390 W/m² | - |
| 1788132734 | 20.56° C | 60% | 1012.3 hPa | 0 mm | - | 408 W/m² | - |
| 1788132430 | 21.11° C | 59% | 1012.3 hPa | 0 mm | - | 429 W/m² | - |
| 1788132125 | 20.56° C | 59% | 1012.4 hPa | 0 mm | - | 447 W/m² | - |
| 1788131822 | 20.56° C | 60% | 1012.4 hPa | 0 mm | - | 466 W/m² | - |
| 1788131521 | 20° C | 63% | 1012.3 hPa | 0 mm | - | 487 W/m² | - |
| 1788131216 | 20° C | 65% | 1012.6 hPa | 0 mm | - | 509 W/m² | - |
| 1788130911 | 19.44° C | 65% | 1012.5 hPa | 0 mm | - | 524 W/m² | - |
| 1788130606 | 20° C | 65% | 1012.4 hPa | 0 mm | - | 542 W/m² | - |
| 1788130306 | 20° C | 65% | 1012.5 hPa | 0 mm | - | 558 W/m² | - |
| 1788130005 | 20.56° C | 63% | 1012.6 hPa | 0 mm | - | 573 W/m² | - |
| 1788129701 | 21.11° C | 60% | 1012.6 hPa | 0 mm | - | 592 W/m² | - |
| 1788129398 | 22.22° C | 54% | 1012.6 hPa | 0 mm | - | 609 W/m² | - |
| 1788129097 | 22.22° C | 56% | 1012.6 hPa | 0 mm | - | 624 W/m² | - |
| 1788128792 | 22.22° C | 54% | 1012.8 hPa | 0 mm | - | 642 W/m² | - |
| 1788128488 | 21.67° C | 56% | 1012.7 hPa | 0 mm | - | 659 W/m² | - |
| 1788128188 | 21.11° C | 58% | 1012.9 hPa | 0 mm | - | 680 W/m² | - |
| 1788127880 | 21.11° C | 61% | 1012.8 hPa | 0 mm | - | 700 W/m² | - |
| 1788127575 | 21.11° C | 61% | 1013 hPa | 0 mm | - | 718 W/m² | - |
| 1788127274 | 20.56° C | 62% | 1013.2 hPa | 0 mm | - | 736 W/m² | - |
| 1788126968 | 20.56° C | 63% | 1013.2 hPa | 0 mm | - | 749 W/m² | - |
| 1788126662 | 20.56° C | 63% | 1013.2 hPa | 0 mm | - | 765 W/m² | - |
* Rain latest hour (hover to see other rain measurements)
** Current wind speed in m/s (hover to see current wind gust speed)